Time;durP1;ratioP1;P1;durP2;ratioP2;P2;SDS_P1;SDS_P2;PMS_P1;PMS_P2;Temp;Humidity;BMP_temperature;BMP_pressure;BME280_temperature;BME280_humidity;BME280_pressure;Samples;Min_cycle;Max_cycle;Signal;HPM_P1;HPM_P2
2023/02/16 00:01:23;;;;;;;77.13;40.92;;;1.00;99.90;;;;;;4924807;29;20252;-79
2023/02/16 00:03:51;;;;;;;82.35;41.70;;;0.90;99.90;;;;;;4925294;29;20508;-80
2023/02/16 00:06:19;;;;;;;69.93;41.55;;;;;;;;;;4924065;29;20566;-79
2023/02/16 00:08:49;;;;;;;80.97;40.70;;;0.90;99.90;;;;;;4926713;29;20224;-79
2023/02/16 00:14:09;;;;;;;74.10;39.33;;;0.90;99.90;;;;;;4924444;29;20208;-80
2023/02/16 00:16:36;;;;;;;75.68;38.85;;;;;;;;;;4916895;29;20644;-81
2023/02/16 00:19:17;;;;;;;72.40;38.10;;;0.80;99.90;;;;;;4922466;29;20224;-80
2023/02/16 00:21:44;;;;;;;79.03;41.78;;;;;;;;;;4920773;29;20504;-80
2023/02/16 00:24:13;;;;;;;71.47;38.90;;;;;;;;;;4924765;29;20504;-80
2023/02/16 00:26:43;;;;;;;86.28;40.70;;;0.90;99.90;;;;;;4920856;29;20220;-80
2023/02/16 00:29:18;;;;;;;83.00;42.05;;;0.90;99.90;;;;;;4921694;29;20635;-80
2023/02/16 00:31:46;;;;;;;76.20;38.45;;;;;;;;;;4920077;29;20244;-80
2023/02/16 00:34:36;;;;;;;87.45;41.90;;;1.00;99.90;;;;;;4919002;29;20212;-80
2023/02/16 00:37:09;;;;;;;78.82;39.38;;;0.80;99.90;;;;;;4919623;29;20204;-80
2023/02/16 00:39:38;;;;;;;75.45;37.85;;;0.50;99.90;;;;;;4927669;29;20279;-79
2023/02/16 00:42:05;;;;;;;117.60;55.85;;;;;;;;;;4924506;29;20215;-80
2023/02/16 00:44:32;;;;;;;114.07;52.75;;;;;;;;;;4922780;29;20200;-80
2023/02/16 00:47:21;;;;;;;101.10;48.65;;;0.70;99.90;;;;;;4927114;29;20253;-80
2023/02/16 00:49:50;;;;;;;150.23;65.75;;;0.80;99.90;;;;;;4927080;29;20222;-79
2023/02/16 00:52:37;;;;;;;109.95;54.55;;;0.60;99.90;;;;;;4917071;29;20204;-80
2023/02/16 00:55:07;;;;;;;100.70;45.85;;;0.60;99.90;;;;;;4921023;29;20200;-80
2023/02/16 00:57:40;;;;;;;94.85;47.05;;;;;;;;;;4923694;29;20240;-80
2023/02/16 01:00:07;;;;;;;96.90;51.60;;;0.90;99.90;;;;;;4927128;29;20268;-80
2023/02/16 01:02:35;;;;;;;76.65;39.65;;;;;;;;;;4927109;29;20441;-80
2023/02/16 01:05:03;;;;;;;95.13;46.05;;;;;;;;;;4915821;29;20205;-81
2023/02/16 01:13:04;;;;;;;93.68;41.35;;;;;;;;;;4919606;29;20375;-82
2023/02/16 01:15:31;;;;;;;92.60;45.38;;;0.90;99.90;;;;;;4917823;29;20508;-81
2023/02/16 01:17:59;;;;;;;78.15;39.67;;;;;;;;;;4917980;29;20209;-81
2023/02/16 01:20:27;;;;;;;81.30;39.90;;;;;;;;;;4921819;29;20227;-81
2023/02/16 01:22:54;;;;;;;90.20;41.47;;;;;;;;;;4917777;29;20253;-79
2023/02/16 01:25:22;;;;;;;77.15;39.83;;;;;;;;;;4922243;29;20204;-81
2023/02/16 01:27:50;;;;;;;81.88;41.55;;;;;;;;;;4922459;29;20252;-82
2023/02/16 01:30:22;;;;;;;90.68;44.63;;;0.50;99.90;;;;;;4915679;29;20505;-81
2023/02/16 01:32:52;;;;;;;91.13;44.05;;;0.50;99.90;;;;;;4918551;29;20233;-82
2023/02/16 01:35:27;;;;;;;85.05;45.28;;;0.50;99.90;;;;;;4923960;29;20216;-80
2023/02/16 01:37:55;;;;;;;95.00;48.13;;;;;;;;;;4932099;29;20211;-80
2023/02/16 01:40:33;;;;;;;85.40;43.75;;;0.70;99.90;;;;;;4914693;29;20201;-81
2023/02/16 01:43:03;;;;;;;85.38;41.95;;;0.20;99.90;;;;;;4922104;29;20512;-82
2023/02/16 01:45:36;;;;;;;85.10;42.35;;;0.60;99.90;;;;;;4923267;29;20235;-81
2023/02/16 01:48:08;;;;;;;79.65;42.80;;;0.40;99.90;;;;;;4931704;29;20241;-82
2023/02/16 01:51:04;;;;;;;70.18;39.40;;;0.40;99.90;;;;;;4919899;29;20627;-81
2023/02/16 01:53:56;;;;;;;75.00;40.03;;;0.60;99.90;;;;;;4898075;29;20514;-80
2023/02/16 01:56:45;;;;;;;86.47;40.78;;;0.70;99.90;;;;;;4923363;29;20253;-80
2023/02/16 01:59:32;;;;;;;80.32;41.55;;;0.20;99.90;;;;;;4919386;29;20230;-80
2023/02/16 02:02:04;;;;;;;100.18;44.53;;;0.40;99.90;;;;;;4927086;29;20252;-79
2023/02/16 02:07:34;;;;;;;106.25;44.38;;;0.50;99.90;;;;;;4896608;29;20403;-81
2023/02/16 02:10:36;;;;;;;84.57;45.40;;;0.50;99.90;;;;;;4924079;29;20254;-80
2023/02/16 02:13:10;;;;;;;81.95;43.35;;;0.40;99.90;;;;;;4935220;29;20219;-80
2023/02/16 02:15:37;;;;;;;105.43;49.90;;;;;;;;;;4931187;29;20203;-81
2023/02/16 02:18:05;;;;;;;95.68;47.53;;;;;;;;;;4925599;29;20221;-81
2023/02/16 02:24:04;;;;;;;96.20;46.35;;;0.20;99.90;;;;;;4934260;29;20259;-80
2023/02/16 02:27:04;;;;;;;99.30;50.40;;;0.40;99.90;;;;;;4932191;29;20263;-81
2023/02/16 02:29:44;;;;;;;91.97;45.72;;;0.40;99.90;;;;;;4931614;29;20212;-80
2023/02/16 02:32:39;;;;;;;103.38;48.50;;;0.40;99.90;;;;;;4937264;29;20260;-81
2023/02/16 02:35:07;;;;;;;102.95;50.58;;;;;;;;;;4938256;29;20221;-80
2023/02/16 02:37:56;;;;;;;111.53;55.63;;;0.20;99.90;;;;;;4936072;29;20208;-79
2023/02/16 02:40:51;;;;;;;100.50;50.33;;;0.30;99.90;;;;;;4928123;29;20199;-81
2023/02/16 02:43:39;;;;;;;90.65;41.50;;;0.40;99.90;;;;;;4938997;29;20252;-81
2023/02/16 02:46:17;;;;;;;115.93;49.22;;;0.40;99.90;;;;;;4931178;29;20248;-80
2023/02/16 02:48:44;;;;;;;90.38;46.63;;;;;;;;;;4938480;29;20200;-81
2023/02/16 02:51:28;;;;;;;95.75;45.08;;;0.40;99.90;;;;;;4934245;29;20611;-81
2023/02/16 03:02:48;;;;;;;99.65;48.08;;;0.30;99.90;;;;;;4911491;29;20433;-81
2023/02/16 03:05:19;;;;;;;111.25;53.35;;;0.30;99.90;;;;;;4921619;29;20200;-81
2023/02/16 03:07:50;;;;;;;85.80;42.10;;;0.70;99.90;;;;;;4916855;29;20228;-79
2023/02/16 03:13:17;;;;;;;103.18;53.20;;;0.40;99.90;;;;;;4912822;29;20205;-80
2023/02/16 03:15:47;;;;;;;112.45;52.33;;;0.30;99.90;;;;;;4920337;29;20371;-81
2023/02/16 03:29:24;;;;;;;98.50;48.83;;;0.50;99.90;;;;;;4925464;29;20197;-80
2023/02/16 03:31:54;;;;;;;85.15;47.30;;;0.50;99.90;;;;;;4926416;29;20205;-79
2023/02/16 03:34:22;;;;;;;98.35;46.47;;;1.30;99.90;;;;;;4922808;29;20239;-81
2023/02/16 03:36:53;;;;;;;97.68;47.03;;;0.50;99.90;;;;;;4922184;29;20259;-80
2023/02/16 03:39:20;;;;;;;87.40;43.95;;;0.60;99.90;;;;;;4926598;29;20213;-81
2023/02/16 03:41:50;;;;;;;88.72;44.35;;;0.50;99.90;;;;;;4921232;29;20514;-80
2023/02/16 03:44:17;;;;;;;90.22;42.72;;;0.60;99.90;;;;;;4921142;29;20501;-80
2023/02/16 03:46:45;;;;;;;87.68;44.15;;;0.50;99.90;;;;;;4927494;29;20239;-81
2023/02/16 03:49:12;;;;;;;85.70;47.25;;;0.50;99.90;;;;;;4928502;29;20208;-80
2023/02/16 03:51:39;;;;;;;82.60;43.67;;;0.40;99.90;;;;;;4928354;29;20196;-79
2023/02/16 03:54:06;;;;;;;104.85;46.00;;;0.40;99.90;;;;;;4920035;29;20205;-82
2023/02/16 03:56:33;;;;;;;113.40;50.10;;;0.50;99.90;;;;;;4922547;29;20213;-79
2023/02/16 03:59:00;;;;;;;94.68;49.47;;;0.40;99.90;;;;;;4920631;29;20212;-81
2023/02/16 04:01:28;;;;;;;93.78;45.10;;;1.60;99.90;;;;;;4927590;29;20256;-81
2023/02/16 04:03:55;;;;;;;91.10;45.85;;;0.30;99.90;;;;;;4915625;29;20205;-81
2023/02/16 04:06:22;;;;;;;93.30;48.30;;;0.40;99.90;;;;;;4921089;29;20236;-81
2023/02/16 04:08:49;;;;;;;100.65;49.15;;;0.40;99.90;;;;;;4928258;29;20208;-81
2023/02/16 04:14:02;;;;;;;99.18;44.10;;;0.50;99.90;;;;;;4920376;29;20196;-81
2023/02/16 04:16:29;;;;;;;85.72;45.35;;;0.40;99.90;;;;;;4923498;29;20208;-79
2023/02/16 04:18:56;;;;;;;83.53;44.78;;;0.90;99.90;;;;;;4923703;29;20212;-81
2023/02/16 04:21:23;;;;;;;93.43;46.28;;;0.40;99.90;;;;;;4941796;29;20221;-81
2023/02/16 04:23:50;;;;;;;78.55;41.10;;;0.40;99.90;;;;;;4935155;29;20197;-82
2023/02/16 04:26:17;;;;;;;92.03;44.83;;;0.50;99.90;;;;;;4930719;29;20252;-81
2023/02/16 04:28:44;;;;;;;85.82;44.03;;;0.80;99.90;;;;;;4935435;29;20200;-81
2023/02/16 04:31:11;;;;;;;78.65;43.15;;;0.60;99.90;;;;;;4928058;29;20240;-81
2023/02/16 04:33:39;;;;;;;81.28;44.85;;;0.50;99.90;;;;;;4920392;29;20216;-81
2023/02/16 04:36:06;;;;;;;99.68;48.30;;;0.50;99.90;;;;;;4920249;29;20200;-81
2023/02/16 04:38:33;;;;;;;98.60;45.28;;;0.50;99.90;;;;;;4927876;29;20212;-80
2023/02/16 04:41:00;;;;;;;95.70;47.38;;;0.50;99.90;;;;;;4927599;29;20208;-79
2023/02/16 04:43:28;;;;;;;102.13;49.20;;;1.00;99.90;;;;;;4919930;29;20238;-80
2023/02/16 04:45:55;;;;;;;78.28;41.22;;;0.50;99.90;;;;;;4921270;29;20204;-80
2023/02/16 04:48:26;;;;;;;85.78;43.42;;;0.50;99.90;;;;;;4924490;29;20211;-79
2023/02/16 04:50:53;;;;;;;75.28;41.88;;;0.60;99.90;;;;;;4916685;29;20205;-80
2023/02/16 04:53:20;;;;;;;85.20;41.70;;;0.60;99.90;;;;;;4927288;29;20201;-82
2023/02/16 04:55:48;;;;;;;88.63;44.83;;;0.60;99.90;;;;;;4922471;29;20234;-80
2023/02/16 04:58:15;;;;;;;91.65;45.92;;;0.60;99.90;;;;;;4926106;29;20212;-80
2023/02/16 05:00:43;;;;;;;86.28;45.25;;;0.70;99.90;;;;;;4918788;29;20226;-80
2023/02/16 05:03:10;;;;;;;92.28;45.33;;;0.70;99.90;;;;;;4924298;29;20212;-80
2023/02/16 05:05:37;;;;;;;96.30;47.30;;;0.70;99.90;;;;;;4923428;29;20205;-81
2023/02/16 05:08:04;;;;;;;79.97;43.50;;;0.70;99.90;;;;;;4923973;29;20275;-80
2023/02/16 05:10:31;;;;;;;83.60;42.35;;;0.40;99.90;;;;;;4916696;29;20213;-81
2023/02/16 05:15:44;;;;;;;110.47;51.30;;;0.40;99.90;;;;;;4909381;29;20204;-82
2023/02/16 05:18:11;;;;;;;99.07;48.60;;;0.30;99.90;;;;;;4925033;29;20271;-81
2023/02/16 05:23:23;;;;;;;94.15;44.70;;;0.20;99.90;;;;;;4922149;29;20200;-82
2023/02/16 05:25:51;;;;;;;98.68;47.40;;;0.40;99.90;;;;;;4921769;29;20377;-83
2023/02/16 05:28:17;;;;;;;95.80;47.30;;;0.40;99.90;;;;;;4927033;29;20477;-81
2023/02/16 05:30:44;;;;;;;82.90;41.95;;;0.40;99.90;;;;;;4926011;29;20201;-80
2023/02/16 05:33:11;;;;;;;98.20;46.40;;;;;;;;;;4937440;29;20231;-80
2023/02/16 05:35:39;;;;;;;82.97;43.05;;;;;;;;;;4936802;29;20213;-81
2023/02/16 05:38:05;;;;;;;88.28;43.35;;;0.40;99.90;;;;;;4919751;29;20243;-83
2023/02/16 05:40:33;;;;;;;99.35;46.75;;;;;;;;;;4924119;29;20205;-82
2023/02/16 05:43:01;;;;;;;99.68;48.17;;;;;;;;;;4926631;29;20299;-80
2023/02/16 05:45:28;;;;;;;90.75;45.63;;;;;;;;;;4919049;29;20223;-81
2023/02/16 05:47:55;;;;;;;86.25;45.30;;;;;;;;;;4925788;29;20275;-81
2023/02/16 05:50:23;;;;;;;88.18;47.95;;;0.30;99.90;;;;;;4920469;29;20212;-80
2023/02/16 05:52:50;;;;;;;90.43;43.13;;;;;;;;;;4926917;29;20200;-80
2023/02/16 05:55:17;;;;;;;104.47;48.33;;;0.40;99.90;;;;;;4918082;29;20520;-80
2023/02/16 05:57:48;;;;;;;77.15;46.47;;;0.30;99.90;;;;;;4923245;29;20204;-81
2023/02/16 06:00:15;;;;;;;94.35;49.88;;;0.40;99.90;;;;;;4925443;29;20208;-81
2023/02/16 06:02:42;;;;;;;93.47;47.42;;;0.30;99.90;;;;;;4922781;29;20256;-81
2023/02/16 06:05:09;;;;;;;101.28;49.22;;;0.40;99.90;;;;;;4917837;29;20514;-81
2023/02/16 06:07:36;;;;;;;108.93;53.75;;;0.40;99.90;;;;;;4915687;29;20277;-80
2023/02/16 06:10:03;;;;;;;98.30;50.47;;;0.10;99.90;;;;;;4921725;29;20435;-80
2023/02/16 06:12:33;;;;;;;124.55;56.38;;;0.10;99.90;;;;;;4926391;29;20208;-80
2023/02/16 06:15:00;;;;;;;109.95;51.80;;;0.30;99.90;;;;;;4926160;29;20204;-80
2023/02/16 06:17:27;;;;;;;105.00;52.15;;;0.30;99.90;;;;;;4926675;29;20293;-81
2023/02/16 06:19:54;;;;;;;106.13;49.58;;;0.40;99.90;;;;;;4925666;29;20208;-81
2023/02/16 06:22:21;;;;;;;106.93;50.05;;;0.60;99.90;;;;;;4921970;29;20425;-81
2023/02/16 06:24:48;;;;;;;90.47;47.50;;;0.60;99.90;;;;;;4926583;29;20201;-81
2023/02/16 06:27:15;;;;;;;90.75;50.63;;;0.50;99.90;;;;;;4919943;29;20527;-80
2023/02/16 06:29:42;;;;;;;97.40;49.83;;;0.60;99.90;;;;;;4919621;29;20204;-81
2023/02/16 06:32:09;;;;;;;116.78;57.97;;;0.70;99.90;;;;;;4925948;29;20247;-80
2023/02/16 06:34:36;;;;;;;100.28;48.53;;;0.50;99.90;;;;;;4927318;29;20211;-81
2023/02/16 06:37:03;;;;;;;90.40;45.75;;;0.60;99.90;;;;;;4919768;29;20205;-82
2023/02/16 06:39:30;;;;;;;87.38;48.42;;;0.80;99.90;;;;;;4913286;29;20275;-80
2023/02/16 06:41:57;;;;;;;77.68;44.28;;;1.00;99.90;;;;;;4924176;29;20208;-80
2023/02/16 06:44:24;;;;;;;79.55;41.13;;;1.10;99.90;;;;;;4924284;29;20204;-81
2023/02/16 06:46:51;;;;;;;79.07;43.17;;;2.10;99.90;;;;;;4919217;29;20275;-81
2023/02/16 06:49:19;;;;;;;75.57;40.00;;;1.40;99.90;;;;;;4925675;29;20203;-81
2023/02/16 06:51:48;;;;;;;79.30;41.47;;;1.60;99.90;;;;;;4922326;29;20211;-82
2023/02/16 06:54:15;;;;;;;68.82;38.90;;;;;;;;;;4911093;29;20241;-82
2023/02/16 06:56:43;;;;;;;75.30;40.70;;;1.50;99.90;;;;;;4917938;29;20205;-81
2023/02/16 06:59:12;;;;;;;68.75;39.20;;;1.80;99.90;;;;;;4918607;29;20204;-82
2023/02/16 07:01:38;;;;;;;73.90;39.75;;;2.10;99.90;;;;;;4926256;29;20200;-82
2023/02/16 07:04:06;;;;;;;68.80;39.00;;;2.20;99.90;;;;;;4918584;29;20201;-81
2023/02/16 07:06:33;;;;;;;68.35;36.97;;;2.60;99.90;;;;;;4926081;29;20417;-83
2023/02/16 07:09:01;;;;;;;63.65;35.70;;;2.40;99.90;;;;;;4925877;29;20201;-82
2023/02/16 07:11:28;;;;;;;67.35;34.72;;;2.40;99.90;;;;;;4924844;29;20228;-81
2023/02/16 07:13:55;;;;;;;59.50;35.40;;;2.50;99.90;;;;;;4929947;29;20247;-82
2023/02/16 07:16:22;;;;;;;64.53;40.05;;;2.80;99.90;;;;;;4930282;29;20217;-81
2023/02/16 07:18:50;;;;;;;65.57;35.78;;;2.90;99.90;;;;;;4935843;29;20204;-82
2023/02/16 07:21:17;;;;;;;63.55;35.05;;;3.00;99.90;;;;;;4923150;29;20390;-80
2023/02/16 07:23:44;;;;;;;62.83;32.92;;;3.20;99.90;;;;;;4929251;29;20202;-82
2023/02/16 07:26:11;;;;;;;64.93;33.17;;;3.30;99.90;;;;;;4929802;29;20315;-81
2023/02/16 07:28:38;;;;;;;56.08;31.90;;;3.50;99.90;;;;;;4925180;29;20235;-81
2023/02/16 07:31:07;;;;;;;49.88;28.90;;;3.70;99.90;;;;;;4930576;29;20226;-81
2023/02/16 07:33:34;;;;;;;52.38;30.80;;;3.80;99.90;;;;;;4917251;29;20264;-81
2023/02/16 07:36:02;;;;;;;48.22;26.13;;;3.60;99.90;;;;;;4916917;29;20495;-82
2023/02/16 07:38:29;;;;;;;56.95;28.95;;;3.60;99.90;;;;;;4922992;29;20219;-81
2023/02/16 07:40:57;;;;;;;52.92;28.38;;;4.00;99.90;;;;;;4925333;29;20202;-81
2023/02/16 07:43:25;;;;;;;46.30;24.95;;;4.30;99.90;;;;;;4928421;29;20204;-81
2023/02/16 07:45:52;;;;;;;42.67;23.38;;;4.70;99.90;;;;;;4927271;29;20216;-80
2023/02/16 07:48:20;;;;;;;43.85;22.70;;;6.60;99.90;;;;;;4933156;29;20211;-80
2023/02/16 07:50:47;;;;;;;38.30;23.00;;;5.50;99.90;;;;;;4929967;29;20189;-80
2023/02/16 07:53:14;;;;;;;39.13;20.50;;;5.70;99.90;;;;;;4931320;29;20544;-82
2023/02/16 07:55:43;;;;;;;32.90;21.77;;;6.90;99.90;;;;;;4929048;29;20200;-82
2023/02/16 07:58:10;;;;;;;28.27;17.55;;;7.00;99.90;;;;;;4929308;29;20267;-82
2023/02/16 08:00:37;;;;;;;38.55;18.30;;;9.00;99.90;;;;;;4928889;29;20200;-81
2023/02/16 08:03:04;;;;;;;33.53;19.17;;;8.00;99.90;;;;;;4921301;29;20264;-81
2023/02/16 08:05:33;;;;;;;33.88;19.00;;;8.10;99.90;;;;;;4928696;29;20253;-82
2023/02/16 08:08:00;;;;;;;35.45;20.67;;;8.90;99.90;;;;;;4925577;29;20235;-80
2023/02/16 08:10:27;;;;;;;31.00;20.42;;;9.50;99.90;;;;;;4926168;29;20203;-80
2023/02/16 08:12:54;;;;;;;29.83;16.88;;;9.40;99.90;;;;;;4915116;29;20203;-79
2023/02/16 08:15:20;;;;;;;26.65;17.17;;;9.60;99.90;;;;;;4926250;29;20199;-79
2023/02/16 08:17:48;;;;;;;32.30;19.42;;;9.60;99.90;;;;;;4926427;29;20244;-80
2023/02/16 08:20:14;;;;;;;73.55;22.15;;;10.70;99.90;;;;;;4927214;29;20203;-80
2023/02/16 08:22:42;;;;;;;31.75;19.10;;;9.30;99.90;;;;;;4920512;29;20208;-80
2023/02/16 08:25:10;;;;;;;33.42;19.95;;;10.90;99.90;;;;;;4928116;29;20203;-80
2023/02/16 08:27:38;;;;;;;34.35;18.40;;;10.40;99.90;;;;;;4919962;29;20240;-80
2023/02/16 08:30:08;;;;;;;30.08;17.88;;;12.00;99.90;;;;;;4925813;29;20443;-80
2023/02/16 08:32:36;;;;;;;32.28;19.92;;;11.00;99.90;;;;;;4927880;29;20204;-80
2023/02/16 08:35:03;;;;;;;27.70;18.23;;;13.00;99.90;;;;;;4928004;29;20208;-81
2023/02/16 08:37:30;;;;;;;29.48;18.45;;;11.50;99.90;;;;;;4928036;29;20268;-80
2023/02/16 08:39:59;;;;;;;25.73;18.55;;;12.10;99.90;;;;;;4927398;29;20560;-80
2023/02/16 08:42:26;;;;;;;26.70;17.10;;;12.00;99.90;;;;;;4925313;29;20231;-81
2023/02/16 08:44:53;;;;;;;33.20;19.60;;;12.10;99.90;;;;;;4917563;29;20366;-80
2023/02/16 08:47:20;;;;;;;32.17;19.80;;;12.30;99.90;;;;;;4925618;29;20235;-80
2023/02/16 08:49:47;;;;;;;37.38;21.65;;;12.10;99.90;;;;;;4927314;29;20240;-80
2023/02/16 08:52:14;;;;;;;26.98;18.42;;;12.90;99.90;;;;;;4924867;29;20429;-80
2023/02/16 08:54:41;;;;;;;26.80;18.35;;;12.00;99.90;;;;;;4934808;29;20221;-80
2023/02/16 08:57:08;;;;;;;27.08;17.17;;;12.10;99.90;;;;;;4920053;29;20256;-81
2023/02/16 08:59:35;;;;;;;28.00;19.48;;;12.50;99.90;;;;;;4927261;29;20248;-80
2023/02/16 09:02:02;;;;;;;37.40;21.95;;;12.70;99.90;;;;;;4923547;29;20213;-80
2023/02/16 09:04:29;;;;;;;29.33;19.10;;;13.30;99.90;;;;;;4918124;29;20401;-80
2023/02/16 09:06:58;;;;;;;27.02;18.67;;;12.50;99.90;;;;;;4921193;29;20210;-79
2023/02/16 09:09:26;;;;;;;27.98;17.75;;;12.60;99.90;;;;;;4924610;29;20354;-81
2023/02/16 09:11:53;;;;;;;32.10;18.80;;;12.70;99.90;;;;;;4917675;29;20207;-80
2023/02/16 09:14:21;;;;;;;28.42;18.15;;;13.10;99.90;;;;;;4920175;29;20202;-79
2023/02/16 09:16:49;;;;;;;25.25;17.63;;;12.50;99.90;;;;;;4918192;29;20225;-79
2023/02/16 09:19:19;;;;;;;31.27;20.35;;;12.40;99.90;;;;;;4927809;29;20267;-79
2023/02/16 09:21:49;;;;;;;31.88;17.92;;;12.00;99.90;;;;;;4922007;29;20200;-80
2023/02/16 09:24:17;;;;;;;30.33;18.20;;;11.80;99.90;;;;;;4926485;29;20648;-79
2023/02/16 09:26:43;;;;;;;24.77;17.50;;;13.10;99.90;;;;;;4920839;29;20200;-81
2023/02/16 09:29:12;;;;;;;30.92;18.35;;;11.00;99.90;;;;;;4926513;29;20228;-80
2023/02/16 09:31:43;;;;;;;30.15;19.08;;;10.70;99.90;;;;;;4920147;29;20208;-80
2023/02/16 09:34:23;;;;;;;30.60;18.50;;;10.00;99.90;;;;;;4923236;29;20207;-80
2023/02/16 09:36:53;;;;;;;27.83;16.27;;;9.80;99.90;;;;;;4914340;29;20520;-81
2023/02/16 09:39:20;;;;;;;26.00;18.10;;;9.40;99.90;;;;;;4925587;29;20405;-79
2023/02/16 09:41:59;;;;;;;24.73;14.82;;;9.20;99.90;;;;;;4919301;29;20207;-78
2023/02/16 09:44:42;;;;;;;30.77;16.27;;;9.20;99.90;;;;;;4926292;29;20433;-79
2023/02/16 09:47:30;;;;;;;26.77;16.08;;;9.00;99.90;;;;;;4924608;29;20244;-78
2023/02/16 09:50:02;;;;;;;28.00;16.23;;;9.00;99.90;;;;;;4915982;29;20270;-81
2023/02/16 09:52:43;;;;;;;25.30;15.23;;;8.90;99.90;;;;;;4915428;29;20564;-78
2023/02/16 09:55:16;;;;;;;27.70;15.18;;;9.00;99.90;;;;;;4911733;29;20232;-81
2023/02/16 09:58:17;;;;;;;21.20;13.93;;;8.80;99.90;;;;;;4918573;29;20212;-79
2023/02/16 10:00:52;;;;;;;38.92;16.88;;;8.80;99.90;;;;;;4926748;29;20215;-78
2023/02/16 10:03:50;;;;;;;23.20;15.27;;;8.80;99.90;;;;;;4924927;29;20206;-79
2023/02/16 10:06:34;;;;;;;24.40;15.07;;;9.20;99.90;;;;;;4940013;29;20202;-79
2023/02/16 10:09:08;;;;;;;28.65;18.13;;;9.00;99.90;;;;;;4921733;29;20227;-78
2023/02/16 10:11:45;;;;;;;35.00;20.27;;;9.00;99.90;;;;;;4921021;29;20223;-79
2023/02/16 10:14:17;;;;;;;29.90;18.50;;;9.00;99.90;;;;;;4926124;29;20217;-78
2023/02/16 10:17:02;;;;;;;22.70;14.77;;;9.10;99.90;;;;;;4919558;29;20207;-79
2023/02/16 10:19:53;;;;;;;25.15;16.08;;;9.10;99.90;;;;;;4923777;29;20211;-78
2023/02/16 10:22:32;;;;;;;26.40;15.07;;;9.20;99.90;;;;;;4922437;29;20218;-78
2023/02/16 10:25:18;;;;;;;28.02;18.30;;;9.30;99.90;;;;;;4926488;29;20231;-78
2023/02/16 10:27:57;;;;;;;27.05;16.95;;;9.40;99.90;;;;;;4925891;29;20261;-79
2023/02/16 10:30:23;;;;;;;27.83;17.17;;;9.90;99.90;;;;;;4924596;29;20207;-79
2023/02/16 10:33:11;;;;;;;28.20;15.52;;;9.20;99.90;;;;;;4917519;29;20256;-78
2023/02/16 10:35:46;;;;;;;25.33;15.63;;;9.60;99.90;;;;;;4924689;29;20211;-78
2023/02/16 10:38:27;;;;;;;32.00;17.08;;;9.50;99.90;;;;;;4925737;29;20254;-78
2023/02/16 10:41:00;;;;;;;30.15;16.02;;;9.40;99.90;;;;;;4924404;29;20248;-79
2023/02/16 10:43:30;;;;;;;36.95;15.45;;;9.30;99.90;;;;;;4919457;29;20262;-78
2023/02/16 10:45:59;;;;;;;24.20;16.95;;;9.40;99.90;;;;;;4924534;29;20259;-77
2023/02/16 10:48:26;;;;;;;24.23;15.98;;;9.20;99.90;;;;;;4925371;29;20246;-78
2023/02/16 10:50:57;;;;;;;27.33;16.02;;;9.10;99.90;;;;;;4925335;29;20216;-79
2023/02/16 10:53:31;;;;;;;22.25;14.52;;;9.10;99.90;;;;;;4919178;29;20243;-78
2023/02/16 10:55:58;;;;;;;28.73;16.35;;;9.20;99.90;;;;;;4913391;29;20221;-78
2023/02/16 10:58:32;;;;;;;32.50;17.77;;;9.20;99.90;;;;;;4925234;29;20274;-78
2023/02/16 11:01:19;;;;;;;29.48;15.10;;;9.80;99.90;;;;;;4922257;29;20211;-79
2023/02/16 11:03:49;;;;;;;23.95;15.18;;;9.20;99.90;;;;;;4922754;29;20212;-79
2023/02/16 11:06:23;;;;;;;25.42;14.77;;;9.20;99.90;;;;;;4921386;29;20259;-78
2023/02/16 11:08:53;;;;;;;27.52;14.50;;;9.50;99.90;;;;;;4927029;29;20500;-77
2023/02/16 11:11:25;;;;;;;30.35;15.75;;;11.20;99.90;;;;;;4925392;29;20200;-80
2023/02/16 11:14:08;;;;;;;26.88;14.63;;;9.30;99.90;;;;;;4917692;29;20207;-79
2023/02/16 11:16:35;;;;;;;27.17;16.83;;;11.00;99.90;;;;;;4917855;29;20219;-79
2023/02/16 11:19:12;;;;;;;23.42;14.75;;;9.30;99.90;;;;;;4919449;29;20210;-78
2023/02/16 11:21:50;;;;;;;24.48;13.82;;;9.20;99.90;;;;;;4923419;29;20203;-78
2023/02/16 11:24:28;;;;;;;22.80;12.93;;;9.20;99.90;;;;;;4933045;29;20202;-77
2023/02/16 11:27:05;;;;;;;22.42;13.98;;;9.30;99.90;;;;;;4917069;29;20369;-79
2023/02/16 11:29:33;;;;;;;20.95;12.95;;;9.30;99.90;;;;;;4916946;29;20278;-78
2023/02/16 11:32:08;;;;;;;24.65;15.40;;;9.70;99.90;;;;;;4912571;29;20245;-79
2023/02/16 11:34:36;;;;;;;25.77;15.05;;;9.60;99.90;;;;;;4925550;29;20207;-79
2023/02/16 11:37:11;;;;;;;24.75;15.80;;;10.30;99.90;;;;;;4925380;29;20251;-78
2023/02/16 11:39:40;;;;;;;24.50;14.88;;;9.60;99.90;;;;;;4921382;29;20227;-78
2023/02/16 11:42:39;;;;;;;28.92;15.27;;;9.60;99.90;;;;;;4914687;29;20216;-78
2023/02/16 11:45:22;;;;;;;18.67;14.00;;;9.70;99.90;;;;;;4922559;29;20458;-79
2023/02/16 11:47:59;;;;;;;23.00;14.52;;;10.40;99.90;;;;;;4915323;29;20208;-78
2023/02/16 11:50:37;;;;;;;24.33;14.57;;;9.70;99.90;;;;;;4921508;29;20499;-78
2023/02/16 11:53:10;;;;;;;26.75;17.13;;;9.80;99.90;;;;;;4917978;29;20523;-79
2023/02/16 11:55:42;;;;;;;27.33;14.95;;;9.80;99.90;;;;;;4927116;29;20206;-78
2023/02/16 11:58:21;;;;;;;25.75;16.50;;;9.80;99.90;;;;;;4921947;29;20204;-80
2023/02/16 12:01:10;;;;;;;23.45;15.55;;;9.90;99.90;;;;;;4926998;29;20220;-78
2023/02/16 12:03:58;;;;;;;27.13;15.98;;;9.80;99.90;;;;;;4928865;29;20425;-78
2023/02/16 12:06:43;;;;;;;27.80;17.45;;;9.60;99.90;;;;;;4926798;29;20231;-77
2023/02/16 12:09:24;;;;;;;27.50;14.77;;;9.60;99.90;;;;;;4926927;29;20242;-79
2023/02/16 12:11:57;;;;;;;25.35;15.43;;;9.90;99.90;;;;;;4927804;29;20203;-78
2023/02/16 12:14:55;;;;;;;31.48;16.23;;;9.70;99.90;;;;;;4919788;29;20204;-79
2023/02/16 12:17:31;;;;;;;24.00;15.68;;;9.80;99.90;;;;;;4920642;29;20231;-78
2023/02/16 12:20:44;;;;;;;26.23;16.60;;;9.70;99.90;;;;;;4928076;29;20506;-77
2023/02/16 12:23:22;;;;;;;29.90;18.20;;;9.90;99.90;;;;;;4912835;29;20208;-78
2023/02/16 12:26:26;;;;;;;28.20;16.27;;;10.00;99.90;;;;;;4923166;29;20211;-79
2023/02/16 12:29:28;;;;;;;29.00;17.80;;;10.10;99.90;;;;;;4928292;29;20226;-78
2023/02/16 12:32:03;;;;;;;38.63;16.20;;;9.80;99.90;;;;;;4925283;29;20203;-79
2023/02/16 12:34:47;;;;;;;24.10;15.32;;;10.00;99.90;;;;;;4917093;29;20216;-80
2023/02/16 12:37:42;;;;;;;27.42;16.40;;;10.00;99.90;;;;;;4927846;29;20258;-80
2023/02/16 12:40:50;;;;;;;27.35;18.33;;;10.10;99.90;;;;;;4919607;29;20244;-78
2023/02/16 12:43:45;;;;;;;33.35;17.13;;;10.20;99.90;;;;;;4897655;29;20207;-78
2023/02/16 12:46:32;;;;;;;32.15;17.38;;;10.30;99.90;;;;;;4915831;29;20212;-77
2023/02/16 12:49:01;;;;;;;25.98;15.63;;;10.20;99.90;;;;;;4913391;29;20224;-80
2023/02/16 12:51:52;;;;;;;29.90;17.60;;;10.30;99.90;;;;;;4919748;29;20224;-79
2023/02/16 12:54:28;;;;;;;29.77;17.40;;;10.30;99.90;;;;;;4912271;29;20224;-80
2023/02/16 12:57:09;;;;;;;31.77;19.25;;;10.30;99.90;;;;;;4916550;29;20197;-80
2023/02/16 12:59:40;;;;;;;27.27;16.80;;;10.30;99.90;;;;;;4925610;29;20211;-80
2023/02/16 13:02:34;;;;;;;31.13;17.95;;;10.40;99.90;;;;;;4927336;29;20228;-79
2023/02/16 13:05:09;;;;;;;32.90;16.38;;;10.30;99.90;;;;;;4918344;29;20207;-79
2023/02/16 13:07:47;;;;;;;28.80;18.98;;;10.20;99.90;;;;;;4931483;29;20208;-80
2023/02/16 13:10:38;;;;;;;24.40;16.52;;;10.00;99.90;;;;;;4937959;29;20233;-77
2023/02/16 13:13:13;;;;;;;27.92;16.92;;;10.10;99.90;;;;;;4913444;29;20422;-79
2023/02/16 13:15:47;;;;;;;30.73;18.88;;;10.20;99.90;;;;;;4926904;29;20204;-79
2023/02/16 13:18:27;;;;;;;37.05;17.95;;;9.70;99.90;;;;;;4926893;29;20226;-78
2023/02/16 13:21:09;;;;;;;33.05;17.77;;;10.20;99.90;;;;;;4927351;29;20246;-79
2023/02/16 13:24:02;;;;;;;27.33;18.45;;;10.30;99.90;;;;;;4925499;29;20520;-78
2023/02/16 13:26:35;;;;;;;34.75;19.70;;;10.30;99.90;;;;;;4915058;29;20268;-80
2023/02/16 13:29:16;;;;;;;29.23;15.20;;;10.10;99.90;;;;;;4928437;29;20228;-78
2023/02/16 13:31:43;;;;;;;33.38;19.08;;;;;;;;;;4925092;29;20214;-78
2023/02/16 13:34:32;;;;;;;31.25;17.48;;;10.20;99.90;;;;;;4934529;29;20207;-79
2023/02/16 13:37:38;;;;;;;34.78;18.15;;;9.90;99.90;;;;;;4926712;29;20204;-82
2023/02/16 13:40:14;;;;;;;31.42;18.15;;;10.10;99.90;;;;;;4910572;29;20251;-79
2023/02/16 13:42:41;;;;;;;31.75;18.58;;;;;;;;;;4926944;29;20215;-79
2023/02/16 13:45:21;;;;;;;38.53;19.25;;;9.80;99.90;;;;;;4912464;29;20205;-79
2023/02/16 13:47:52;;;;;;;34.30;18.33;;;10.00;99.90;;;;;;4922408;29;20267;-79
2023/02/16 13:50:20;;;;;;;35.30;19.50;;;;;;;;;;4912689;29;20239;-79
2023/02/16 13:52:52;;;;;;;27.98;18.63;;;10.00;99.90;;;;;;4921579;29;20539;-80
2023/02/16 13:55:31;;;;;;;33.95;21.85;;;10.00;99.90;;;;;;4926700;29;20231;-78
2023/02/16 13:58:11;;;;;;;29.23;17.65;;;9.90;99.90;;;;;;4924501;29;20203;-79